Time;durP1;ratioP1;P1;durP2;ratioP2;P2;SDS_P1;SDS_P2;PMS_P1;PMS_P2;Temp;Humidity;BMP_temperature;BMP_pressure;BME280_temperature;BME280_humidity;BME280_pressure;Samples;Min_cycle;Max_cycle;Signal;HPM_P1;HPM_P2
2023/11/16 00:02:57;;;;;;;9.57;2.00;;;9.70;99.10;;;;;;6078708;23;20033;-90
2023/11/16 00:05:43;;;;;;;4.85;1.40;;;9.70;99.10;;;;;;6140345;23;20021;-89
2023/11/16 00:08:35;;;;;;;5.80;1.00;;;9.70;99.10;;;;;;6156730;23;20469;-89
2023/11/16 00:11:22;;;;;;;10.07;1.63;;;9.70;99.10;;;;;;6161530;23;20017;-89
2023/11/16 00:14:03;;;;;;;6.60;1.40;;;9.60;99.00;;;;;;6119078;23;20136;-89
2023/11/16 00:16:41;;;;;;;;;;;;;;;;;;;;;
2023/11/16 00:19:22;;;;;;;4.10;0.90;;;9.50;99.20;;;;;;6161682;23;20020;-89
2023/11/16 00:22:29;;;;;;;6.20;1.00;;;9.60;99.20;;;;;;6052324;23;20023;-88
2023/11/16 00:25:16;;;;;;;9.93;0.80;;;9.60;99.30;;;;;;6077599;23;20048;-88
2023/11/16 00:27:59;;;;;;;4.93;0.80;;;9.50;99.30;;;;;;6161928;23;20447;-88
2023/11/16 00:30:31;;;;;;;5.93;1.30;;;9.50;99.20;;;;;;6161460;23;20067;-88
2023/11/16 00:33:09;;;;;;;5.90;1.02;;;9.60;99.20;;;;;;6137619;23;20099;-88
2023/11/16 00:35:57;;;;;;;;;;;;;;;;;;;;;
2023/11/16 00:38:35;;;;;;;5.07;1.13;;;9.60;99.00;;;;;;6191287;23;20432;-88
2023/11/16 00:41:16;;;;;;;4.35;0.98;;;9.60;99.10;;;;;;6191208;23;20520;-89
2023/11/16 00:44:01;;;;;;;5.65;0.95;;;9.60;99.10;;;;;;6191614;23;20017;-88
2023/11/16 00:46:35;;;;;;;7.95;1.25;;;9.70;99.10;;;;;;6191983;23;20013;-88
2023/11/16 00:49:25;;;;;;;;;;;;;;;;;;;;;
2023/11/16 00:52:27;;;;;;;1.98;0.70;;;9.70;98.90;;;;;;6197985;23;20017;-88
2023/11/16 00:55:04;;;;;;;9.45;1.55;;;9.70;98.90;;;;;;6190873;23;20116;-87
2023/11/16 00:57:47;;;;;;;5.35;0.70;;;9.70;98.90;;;;;;6194540;23;20096;-88
2023/11/16 01:00:48;;;;;;;6.65;1.02;;;9.70;98.80;;;;;;6167457;23;20031;-88
2023/11/16 01:03:56;;;;;;;;;;;;;;;;;;;;;
2023/11/16 01:07:38;;;;;;;;;;;;;;;;;;;;;
2023/11/16 01:19:25;;;;;;;5.83;1.10;;;9.10;99.60;;;;;;5875730;24;20101;-88
2023/11/16 01:22:03;;;;;;;3.53;0.85;;;9.00;99.90;;;;;;5855292;24;20057;-87
2023/11/16 01:25:04;;;;;;;5.30;1.40;;;9.00;99.90;;;;;;5883575;24;20051;-86
2023/11/16 01:31:10;;;;;;;6.53;1.00;;;8.90;99.90;;;;;;5993377;23;20031;-87
2023/11/16 01:33:58;;;;;;;8.95;1.80;;;8.90;99.90;;;;;;5960618;24;20063;-86
2023/11/16 01:36:51;;;;;;;2.13;0.60;;;8.90;99.90;;;;;;5955047;24;20104;-86
2023/11/16 01:40:02;;;;;;;2.53;1.10;;;8.90;99.90;;;;;;5969249;23;20025;-86
2023/11/16 01:42:29;;;;;;;4.00;0.70;;;8.90;99.90;;;;;;5954297;24;20111;-86
2023/11/16 01:45:39;;;;;;;3.20;0.85;;;8.90;99.90;;;;;;5955010;23;20421;-86
2023/11/16 01:48:39;;;;;;;5.80;0.63;;;8.90;99.90;;;;;;6031034;23;20027;-85
2023/11/16 01:51:41;;;;;;;3.75;0.63;;;8.90;99.90;;;;;;6003546;23;20026;-86
2023/11/16 01:54:08;;;;;;;3.47;0.73;;;8.90;99.90;;;;;;6091275;23;20041;-86
2023/11/16 01:56:38;;;;;;;5.70;0.80;;;8.90;99.90;;;;;;6163713;23;20083;-86
2023/11/16 01:59:07;;;;;;;2.97;0.90;;;8.90;99.90;;;;;;6161266;23;20383;-87
2023/11/16 02:01:35;;;;;;;3.33;1.05;;;8.90;99.90;;;;;;6185235;23;20344;-86
2023/11/16 02:04:05;;;;;;;3.88;1.10;;;8.90;99.90;;;;;;6185763;23;20089;-87
2023/11/16 02:06:54;;;;;;;3.85;0.73;;;8.90;99.90;;;;;;6187168;23;20024;-86
2023/11/16 02:09:43;;;;;;;5.53;0.70;;;8.90;99.90;;;;;;6163193;23;20027;-86
2023/11/16 02:12:39;;;;;;;;;;;;;;;;;;;;;
2023/11/16 02:15:17;;;;;;;4.40;0.82;;;8.90;99.90;;;;;;6185341;23;20031;-87
2023/11/16 02:17:49;;;;;;;5.20;0.80;;;8.90;99.90;;;;;;6185342;23;20020;-87
2023/11/16 02:20:41;;;;;;;3.88;1.00;;;8.90;99.90;;;;;;6163215;23;20075;-87
2023/11/16 02:23:08;;;;;;;3.85;0.80;;;8.90;99.90;;;;;;6185251;23;20367;-87
2023/11/16 02:25:53;;;;;;;1.98;0.57;;;8.90;99.90;;;;;;6136263;23;20103;-87
2023/11/16 02:28:22;;;;;;;3.15;0.93;;;8.90;99.90;;;;;;6185662;23;20440;-87
2023/11/16 02:31:03;;;;;;;3.80;0.93;;;8.90;99.90;;;;;;6160754;23;20108;-87
2023/11/16 02:33:32;;;;;;;4.43;1.00;;;8.90;99.90;;;;;;6185493;23;20031;-87
2023/11/16 02:36:03;;;;;;;4.25;1.20;;;8.90;99.90;;;;;;6137465;23;20024;-87
2023/11/16 02:38:50;;;;;;;3.88;1.20;;;8.90;99.90;;;;;;6169285;23;20017;-87
2023/11/16 02:41:45;;;;;;;5.88;1.38;;;8.90;99.90;;;;;;6185102;23;20014;-87
2023/11/16 02:44:24;;;;;;;5.97;1.20;;;8.90;99.90;;;;;;6164695;23;20104;-87
2023/11/16 02:47:21;;;;;;;4.45;0.88;;;8.90;99.90;;;;;;6163769;23;20021;-87
2023/11/16 02:49:52;;;;;;;6.25;0.80;;;8.80;99.90;;;;;;6185511;23;20041;-87
2023/11/16 02:52:22;;;;;;;3.47;1.00;;;8.80;99.90;;;;;;6185549;23;20033;-86
2023/11/16 02:54:50;;;;;;;2.97;0.80;;;8.80;99.90;;;;;;6136123;23;20021;-87
2023/11/16 02:57:42;;;;;;;4.88;0.90;;;8.80;99.90;;;;;;6160804;23;20083;-87
2023/11/16 03:00:39;;;;;;;4.35;1.45;;;8.80;99.90;;;;;;6149291;23;20025;-87
2023/11/16 03:03:17;;;;;;;3.95;0.80;;;8.80;99.90;;;;;;6158043;23;20017;-87
2023/11/16 03:06:50;;;;;;;;;;;;;;;;;;;;;
2023/11/16 03:09:26;;;;;;;3.00;0.70;;;8.80;99.90;;;;;;6185269;23;20087;-87
2023/11/16 03:12:41;;;;;;;;;;;;;;;;;;;;;
2023/11/16 03:15:22;;;;;;;1.70;0.70;;;8.80;99.90;;;;;;6187060;23;20021;-87
2023/11/16 03:18:23;;;;;;;;;;;;;;;;;;;;;
2023/11/16 03:21:03;;;;;;;2.25;0.60;;;8.80;99.90;;;;;;6208985;23;20374;-87
2023/11/16 03:23:54;;;;;;;1.83;0.50;;;8.80;99.90;;;;;;6186764;23;20040;-87
2023/11/16 03:27:03;;;;;;;2.67;0.73;;;8.90;99.90;;;;;;6187195;23;20017;-87
2023/11/16 03:30:18;;;;;;;;;;;;;;;;;;;;;
2023/11/16 03:33:24;;;;;;;3.63;0.75;;;8.80;99.90;;;;;;6172060;23;20016;-87
2023/11/16 03:35:51;;;;;;;2.83;0.60;;;8.80;99.90;;;;;;6186629;23;20036;-87
2023/11/16 03:39:00;;;;;;;2.63;0.68;;;8.80;99.90;;;;;;6177462;23;20017;-87
2023/11/16 03:42:14;;;;;;;1.83;0.80;;;8.70;99.90;;;;;;6163158;23;20028;-86
2023/11/16 03:45:06;;;;;;;1.75;0.80;;;8.70;99.90;;;;;;6106619;23;20093;-86
2023/11/16 03:47:45;;;;;;;2.15;0.80;;;8.60;99.90;;;;;;6117931;23;20017;-87
2023/11/16 03:50:52;;;;;;;5.60;1.00;;;8.60;99.90;;;;;;6166256;23;20043;-87
2023/11/16 03:53:26;;;;;;;1.95;0.63;;;8.60;99.90;;;;;;6187037;23;20048;-87
2023/11/16 03:55:53;;;;;;;0.93;0.40;;;8.50;99.90;;;;;;6161963;23;20025;-87
2023/11/16 03:59:14;;;;;;;2.05;0.50;;;8.50;99.90;;;;;;6087481;23;20022;-87
2023/11/16 04:01:42;;;;;;;2.03;0.40;;;8.50;99.90;;;;;;6079258;23;20025;-87
2023/11/16 04:05:06;;;;;;;1.75;0.47;;;8.50;99.90;;;;;;6079096;23;20419;-87
2023/11/16 04:07:45;;;;;;;0.73;0.30;;;8.50;99.90;;;;;;6124589;23;20508;-87
2023/11/16 04:10:49;;;;;;;0.90;0.40;;;8.50;99.90;;;;;;6058812;23;20036;-87
2023/11/16 04:13:40;;;;;;;2.10;0.47;;;8.50;99.90;;;;;;6120501;23;20105;-88
2023/11/16 04:17:13;;;;;;;;;;;;;;;;;;;;;
2023/11/16 04:20:37;;;;;;;1.15;0.40;;;8.50;99.90;;;;;;6009837;23;20143;-87
2023/11/16 04:24:18;;;;;;;;;;;;;;;;;;;;;
2023/11/16 04:26:45;;;;;;;1.42;0.60;;;8.40;99.90;;;;;;6056053;23;20054;-87
2023/11/16 04:32:45;;;;;;;2.40;0.85;;;8.40;99.90;;;;;;6157040;23;20021;-87
2023/11/16 04:35:33;;;;;;;2.15;0.80;;;8.40;99.90;;;;;;6187180;23;20055;-87
2023/11/16 04:41:45;;;;;;;4.07;1.10;;;8.50;99.90;;;;;;6172980;23;20016;-87
2023/11/16 04:44:26;;;;;;;5.75;1.30;;;8.50;99.90;;;;;;6168397;23;20086;-88
2023/11/16 04:46:56;;;;;;;2.92;1.27;;;8.60;99.90;;;;;;6166951;23;20012;-88
2023/11/16 04:49:24;;;;;;;5.60;1.92;;;8.60;99.90;;;;;;6166462;23;20040;-88
2023/11/16 04:51:53;;;;;;;5.22;2.00;;;8.60;99.90;;;;;;6166925;23;20025;-87
2023/11/16 04:54:20;;;;;;;4.65;1.85;;;8.70;99.90;;;;;;6167053;23;20023;-88
2023/11/16 04:57:31;;;;;;;4.82;2.28;;;8.70;99.90;;;;;;6170459;23;20040;-88
2023/11/16 05:00:00;;;;;;;5.40;2.80;;;8.70;99.90;;;;;;6191863;23;20024;-88
2023/11/16 05:03:02;;;;;;;4.63;2.42;;;8.70;99.90;;;;;;6171896;23;20061;-88
2023/11/16 05:05:56;;;;;;;6.28;2.03;;;8.70;99.90;;;;;;6167543;23;20017;-88
2023/11/16 05:08:46;;;;;;;3.88;1.70;;;8.70;99.90;;;;;;6166603;23;20024;-88
2023/11/16 05:11:27;;;;;;;5.50;1.77;;;8.70;99.90;;;;;;6191355;23;20047;-88
2023/11/16 05:13:59;;;;;;;4.20;1.85;;;8.70;99.90;;;;;;6147451;23;20013;-88
2023/11/16 05:16:35;;;;;;;6.00;1.80;;;8.70;99.90;;;;;;6194987;23;20020;-87
2023/11/16 05:19:03;;;;;;;4.47;2.00;;;8.70;99.90;;;;;;6169068;23;20020;-87
2023/11/16 05:21:40;;;;;;;4.45;2.10;;;8.70;99.90;;;;;;6146540;23;20016;-88
2023/11/16 05:24:08;;;;;;;5.97;2.78;;;8.70;99.90;;;;;;6194727;23;20016;-87
2023/11/16 05:27:40;;;;;;;5.97;3.00;;;8.70;99.90;;;;;;6173446;23;20020;-87
2023/11/16 05:30:39;;;;;;;6.43;3.22;;;8.60;99.90;;;;;;6217628;23;20016;-87
2023/11/16 05:33:38;;;;;;;7.10;3.53;;;8.50;99.90;;;;;;6167024;23;20020;-87
2023/11/16 05:36:29;;;;;;;6.07;3.65;;;8.50;99.90;;;;;;6165919;23;20025;-88
2023/11/16 05:38:59;;;;;;;4.93;2.38;;;8.50;99.90;;;;;;6191337;23;20012;-88
2023/11/16 05:41:47;;;;;;;5.50;2.88;;;8.40;99.90;;;;;;6167175;23;20020;-88
2023/11/16 05:44:20;;;;;;;5.97;2.03;;;8.30;99.90;;;;;;6191268;23;20047;-87
2023/11/16 05:46:56;;;;;;;4.32;2.20;;;8.20;99.90;;;;;;6166805;23;20016;-88
2023/11/16 05:49:24;;;;;;;6.05;2.13;;;8.20;99.90;;;;;;6165781;23;20025;-88
2023/11/16 05:51:53;;;;;;;3.95;1.38;;;8.10;99.90;;;;;;6190754;23;20024;-88
2023/11/16 05:54:31;;;;;;;4.63;1.27;;;8.10;99.90;;;;;;6193187;23;20020;-87
2023/11/16 06:00:38;;;;;;;2.35;0.93;;;8.00;99.90;;;;;;6202047;23;20095;-88
2023/11/16 06:03:46;;;;;;;1.85;0.70;;;7.90;99.90;;;;;;6166014;23;20020;-88
2023/11/16 06:09:27;;;;;;;1.52;0.70;;;7.80;99.90;;;;;;6173003;23;20103;-88
2023/11/16 06:12:30;;;;;;;;;;;;;;;;;;;;;
2023/11/16 06:15:15;;;;;;;1.40;0.70;;;7.90;99.90;;;;;;6034993;23;20544;-88
2023/11/16 06:17:43;;;;;;;1.85;0.55;;;7.90;99.90;;;;;;6166456;23;20020;-88
2023/11/16 06:20:28;;;;;;;1.77;0.77;;;7.80;99.90;;;;;;6166382;23;20048;-88
2023/11/16 06:23:02;;;;;;;2.05;0.70;;;7.90;99.90;;;;;;6165805;23;20020;-88
2023/11/16 06:25:52;;;;;;;2.20;0.80;;;7.90;99.90;;;;;;6169366;23;20032;-87
2023/11/16 06:33:23;;;;;;;;;;;;;;;;;;;;;
2023/11/16 06:37:04;;;;;;;2.85;0.85;;;7.90;99.90;;;;;;5983300;23;20027;-88
2023/11/16 06:53:11;;;;;;;4.45;1.10;;;7.90;99.90;;;;;;5952320;24;20048;-88
2023/11/16 06:55:45;;;;;;;2.58;0.93;;;7.90;99.90;;;;;;5979042;24;20047;-88
2023/11/16 06:58:12;;;;;;;1.88;0.90;;;7.90;99.90;;;;;;6051616;23;20567;-88
2023/11/16 07:01:34;;;;;;;;;;;;;;;;;;;;;
2023/11/16 07:04:41;;;;;;;1.73;0.60;;;7.90;99.90;;;;;;6123942;23;20048;-89
2023/11/16 07:08:09;;;;;;;;;;;;;;;;;;;;;
2023/11/16 07:11:55;;;;;;;2.47;0.75;;;7.90;99.90;;;;;;6022050;23;20095;-88
2023/11/16 07:15:53;;;;;;;2.10;0.70;;;7.90;99.90;;;;;;5981721;23;20027;-88
2023/11/16 07:18:36;;;;;;;2.13;0.60;;;7.90;99.90;;;;;;6032506;23;20534;-88
2023/11/16 07:21:06;;;;;;;2.75;0.93;;;7.90;99.90;;;;;;6095612;23;20466;-89
2023/11/16 07:23:55;;;;;;;1.70;1.00;;;8.00;99.90;;;;;;6134734;23;20104;-88
2023/11/16 07:26:54;;;;;;;2.75;1.05;;;8.00;99.90;;;;;;6185126;23;20406;-88
2023/11/16 07:34:39;;;;;;;;;;;;;;;;;;;;;
2023/11/16 07:42:01;;;;;;;2.33;0.82;;;8.30;99.90;;;;;;6050501;23;20019;-87
2023/11/16 07:48:36;;;;;;;4.10;1.30;;;8.40;99.90;;;;;;6048647;23;20023;-87
2023/11/16 07:51:54;;;;;;;3.67;1.40;;;8.40;99.90;;;;;;6043990;23;20090;-87
2023/11/16 07:59:25;;;;;;;;;;;;;;;;;;;;;
2023/11/16 08:15:06;;;;;;;;;;;;;;;;;;;;;
2023/11/16 08:28:49;;;;;;;3.13;0.70;;;8.60;99.90;;;;;;5682759;22;15103353;-87
2023/11/16 08:40:59;;;;;;;2.60;0.80;;;8.70;99.90;;;;;;5989650;23;20501;-93
2023/11/16 09:11:35;;;;;;;5.95;1.73;;;9.00;99.90;;;;;;5990725;23;20056;-94
2023/11/16 09:18:49;;;;;;;3.38;1.52;;;9.00;99.90;;;;;;6074313;23;20457;-93
2023/11/16 09:21:32;;;;;;;4.95;2.20;;;8.90;99.90;;;;;;6057350;23;20015;-96
2023/11/16 09:25:19;;;;;;;3.35;1.65;;;8.90;99.90;;;;;;6039234;23;20025;-91
2023/11/16 09:37:32;;;;;;;4.75;1.50;;;9.00;99.90;;;;;;6088301;23;20019;-90
2023/11/16 09:44:06;;;;;;;3.97;1.88;;;9.00;99.90;;;;;;6027414;23;20077;-88
2023/11/16 09:46:37;;;;;;;3.78;2.10;;;9.00;99.90;;;;;;6132305;23;20025;-89
2023/11/16 09:49:09;;;;;;;5.47;2.28;;;9.10;99.90;;;;;;6227225;22;20024;-90
2023/11/16 09:51:37;;;;;;;4.60;2.00;;;9.10;99.90;;;;;;6225574;22;20081;-91
2023/11/16 09:54:08;;;;;;;4.35;2.15;;;9.10;99.90;;;;;;6251411;22;20020;-89
2023/11/16 09:56:40;;;;;;;4.95;2.00;;;9.10;99.90;;;;;;6247282;22;20057;-87
2023/11/16 09:59:25;;;;;;;4.15;1.90;;;9.10;99.90;;;;;;6283325;22;20420;-87
2023/11/16 10:02:08;;;;;;;5.55;2.30;;;9.10;99.90;;;;;;6283630;22;20066;-89
2023/11/16 10:05:31;;;;;;;5.35;2.22;;;9.10;99.90;;;;;;6283902;22;20019;-89
2023/11/16 10:08:06;;;;;;;4.93;2.60;;;9.20;99.90;;;;;;6283310;22;20023;-90
2023/11/16 10:11:08;;;;;;;;;;;;;;;;;;;;;
2023/11/16 10:13:54;;;;;;;5.10;2.63;;;9.20;99.90;;;;;;6306854;22;20023;-89
2023/11/16 10:16:51;;;;;;;3.92;1.83;;;9.10;99.90;;;;;;6283440;22;20122;-92
2023/11/16 10:19:22;;;;;;;5.68;2.40;;;9.10;99.90;;;;;;6286050;22;20082;-90
2023/11/16 10:21:51;;;;;;;4.53;2.10;;;9.10;99.90;;;;;;6271359;22;20039;-90
2023/11/16 10:24:21;;;;;;;4.53;2.25;;;9.10;99.90;;;;;;6311642;22;20015;-89
2023/11/16 10:26:52;;;;;;;5.03;1.70;;;9.10;99.90;;;;;;6257844;22;20034;-89
2023/11/16 10:33:46;;;;;;;5.78;2.50;;;9.10;99.90;;;;;;6307872;22;20003;-88
2023/11/16 10:36:23;;;;;;;4.75;2.20;;;9.10;99.90;;;;;;6284219;22;20012;-89
2023/11/16 10:39:09;;;;;;;;;;;;;;;;;;;;;
2023/11/16 10:44:42;;;;;;;4.90;2.53;;;9.20;99.90;;;;;;6287120;22;20103;-88
2023/11/16 10:51:04;;;;;;;;;;;9.10;99.90;;;;;;6310398;22;20296;-92
2023/11/16 10:54:12;;;;;;;4.55;1.95;;;9.00;99.90;;;;;;6307259;22;19929;-89
2023/11/16 10:56:47;;;;;;;5.35;1.63;;;9.00;99.90;;;;;;6282726;22;20019;-88
2023/11/16 10:59:17;;;;;;;3.53;1.40;;;9.00;99.90;;;;;;6307819;22;20019;-85
2023/11/16 11:01:47;;;;;;;4.68;1.48;;;9.10;99.90;;;;;;6283005;22;20054;-88
2023/11/16 11:04:15;;;;;;;5.00;1.92;;;9.10;99.90;;;;;;6282650;22;20023;-87
2023/11/16 11:07:08;;;;;;;5.15;2.10;;;9.10;99.90;;;;;;6282127;22;20019;-89
2023/11/16 11:09:39;;;;;;;;;;;9.10;99.90;;;;;;6282692;22;20019;-89
2023/11/16 11:12:40;;;;;;;;;;;;;;;;;;;;;
2023/11/16 11:38:30;;;;;;;3.45;1.20;;;9.00;99.90;;;;;;5854053;24;20098;-91
2023/11/16 11:50:37;;;;;;;;;;;;;;;;;;;;;
2023/11/16 11:55:06;;;;;;;;;;;;;;;;;;;;;
2023/11/16 14:01:50;;;;;;;4.50;1.50;;;8.70;99.90;;;;;;6036652;22;4874297;-90
2023/11/16 14:05:08;;;;;;;3.67;1.35;;;8.70;99.90;;;;;;6107216;23;20465;-90
2023/11/16 14:08:25;;;;;;;3.50;1.42;;;8.70;99.90;;;;;;6106203;23;20401;-94
2023/11/16 14:10:58;;;;;;;2.88;1.38;;;8.70;99.90;;;;;;6078952;23;20026;-89
2023/11/16 14:17:44;;;;;;;7.63;2.47;;;8.70;99.90;;;;;;6109540;23;20026;-91
2023/11/16 14:20:35;;;;;;;4.07;1.77;;;8.70;99.90;;;;;;6122717;23;20445;-89
2023/11/16 14:23:31;;;;;;;5.00;1.77;;;8.60;99.90;;;;;;6227212;23;20390;-88
2023/11/16 14:26:56;;;;;;;;;;;;;;;;;;;;;
2023/11/16 14:29:34;;;;;;;3.72;1.10;;;8.60;99.90;;;;;;6221155;23;20447;-88
2023/11/16 14:32:42;;;;;;;3.40;1.40;;;8.60;99.90;;;;;;6226507;23;20087;-89
2023/11/16 14:35:09;;;;;;;3.55;1.33;;;8.60;99.90;;;;;;6220993;23;20098;-86
2023/11/16 14:37:47;;;;;;;3.05;1.45;;;8.60;99.90;;;;;;6175781;23;20107;-89
2023/11/16 14:40:20;;;;;;;3.55;1.33;;;8.60;99.90;;;;;;6221506;23;20020;-89
2023/11/16 14:43:21;;;;;;;3.28;1.50;;;8.60;99.90;;;;;;6197406;23;20040;-91
2023/11/16 14:45:51;;;;;;;3.25;1.20;;;8.60;99.90;;;;;;6197061;23;20389;-89
2023/11/16 14:48:20;;;;;;;3.28;1.23;;;8.50;99.90;;;;;;6221188;23;20020;-86
2023/11/16 14:51:22;;;;;;;4.90;2.00;;;8.50;99.90;;;;;;6197099;23;20103;-92
2023/11/16 14:54:10;;;;;;;3.22;1.50;;;8.50;99.90;;;;;;6225819;23;20024;-88
2023/11/16 14:56:40;;;;;;;4.28;1.50;;;8.50;99.90;;;;;;6196426;23;20512;-86
2023/11/16 14:59:20;;;;;;;4.57;1.63;;;8.40;99.90;;;;;;6220875;23;20021;-88
2023/11/16 15:01:58;;;;;;;3.75;1.67;;;8.40;99.90;;;;;;6221017;23;20047;-86
2023/11/16 15:04:26;;;;;;;4.55;1.73;;;8.40;99.90;;;;;;6220974;23;20028;-84
2023/11/16 15:06:59;;;;;;;5.00;1.55;;;8.40;99.90;;;;;;6196334;23;20066;-91
2023/11/16 15:09:38;;;;;;;4.00;1.50;;;8.40;99.90;;;;;;6198380;23;20024;-90
2023/11/16 15:12:09;;;;;;;4.30;1.70;;;8.30;99.90;;;;;;6220823;23;20028;-89
2023/11/16 15:14:39;;;;;;;4.90;1.42;;;8.30;99.90;;;;;;6196413;23;20099;-90
2023/11/16 15:17:06;;;;;;;3.75;1.48;;;8.20;99.90;;;;;;6195951;23;20020;-88
2023/11/16 15:19:45;;;;;;;4.15;1.52;;;8.20;99.90;;;;;;6196269;23;20055;-93
2023/11/16 15:23:31;;;;;;;;;;;;;;;;;;;;;
2023/11/16 15:46:25;;;;;;;2.50;0.80;;;8.00;99.90;;;;;;6238870;22;20099;-91
2023/11/16 15:59:47;;;;;;;2.92;1.38;;;8.00;99.90;;;;;;6156237;23;20089;-95
2023/11/16 16:02:30;;;;;;;4.13;1.30;;;7.90;99.90;;;;;;6142682;23;20025;-91
2023/11/16 16:14:37;;;;;;;;;;;;;;;;;;;;;
2023/11/16 16:17:56;;;;;;;3.47;1.00;;;7.70;99.90;;;;;;6111237;23;20160;-92
2023/11/16 16:21:01;;;;;;;;;;;;;;;;;;;;;
2023/11/16 16:39:05;;;;;;;4.25;2.25;;;7.40;99.90;;;;;;6067648;23;20103;-88
2023/11/16 16:41:55;;;;;;;3.92;1.60;;;7.30;99.90;;;;;;6128566;23;20023;-88
2023/11/16 16:44:29;;;;;;;5.38;2.90;;;7.30;99.90;;;;;;6160136;23;20506;-89
2023/11/16 16:47:03;;;;;;;6.25;2.67;;;7.20;99.90;;;;;;6160284;23;20025;-89
2023/11/16 16:49:53;;;;;;;6.22;2.92;;;7.20;99.90;;;;;;6245448;22;20027;-88
2023/11/16 16:52:26;;;;;;;6.28;3.22;;;7.20;99.90;;;;;;6250987;22;20127;-89
2023/11/16 16:54:59;;;;;;;5.83;2.70;;;7.20;99.90;;;;;;6226048;22;20016;-89
2023/11/16 16:57:29;;;;;;;6.43;2.97;;;7.20;99.90;;;;;;6225839;22;20083;-88
2023/11/16 16:59:57;;;;;;;7.15;3.45;;;7.10;99.90;;;;;;6225611;22;20499;-93
2023/11/16 17:02:57;;;;;;;7.03;3.50;;;7.10;99.90;;;;;;6108731;23;20014;-89
2023/11/16 17:05:25;;;;;;;9.35;3.75;;;7.20;99.90;;;;;;6177592;22;20015;-88
2023/11/16 17:07:53;;;;;;;7.72;3.63;;;7.10;99.90;;;;;;6253300;22;20015;-93
2023/11/16 17:10:28;;;;;;;6.50;3.33;;;7.20;99.90;;;;;;6229341;22;20090;-88
2023/11/16 17:12:55;;;;;;;8.40;3.25;;;7.10;99.90;;;;;;6228697;22;20016;-89
2023/11/16 17:15:23;;;;;;;5.28;2.63;;;7.10;99.90;;;;;;6258726;22;20015;-87
2023/11/16 17:18:11;;;;;;;6.15;2.50;;;7.10;99.90;;;;;;6242153;22;20016;-89
2023/11/16 17:20:56;;;;;;;4.72;2.63;;;7.10;99.90;;;;;;6239321;22;20050;-95
2023/11/16 17:23:29;;;;;;;;;;;7.10;99.90;;;;;;6239681;22;20038;-84
2023/11/16 17:25:56;;;;;;;6.60;2.42;;;7.10;99.90;;;;;;6239244;22;19915;-87
2023/11/16 17:34:55;;;;;;;5.28;2.40;;;7.00;99.90;;;;;;6280285;22;20091;-87
2023/11/16 17:37:23;;;;;;;6.03;2.75;;;7.10;99.90;;;;;;6202975;22;20073;-92
2023/11/16 17:39:50;;;;;;;4.50;2.40;;;7.10;99.90;;;;;;6222314;23;20067;-90
2023/11/16 17:42:25;;;;;;;4.20;1.73;;;7.10;99.90;;;;;;6222573;23;20019;-91
2023/11/16 17:44:59;;;;;;;5.57;2.30;;;7.10;99.90;;;;;;6222996;23;20323;-91
2023/11/16 17:47:42;;;;;;;4.35;1.80;;;7.10;99.90;;;;;;6225623;23;20107;-92
2023/11/16 17:50:16;;;;;;;;;;;7.10;99.90;;;;;;6198599;23;20035;-90
2023/11/16 17:52:48;;;;;;;5.22;2.58;;;7.00;99.90;;;;;;6247228;23;19990;-88
2023/11/16 17:55:28;;;;;;;5.07;2.55;;;7.00;99.90;;;;;;6197447;23;20016;-91
2023/11/16 18:01:43;;;;;;;5.00;2.53;;;7.00;99.90;;;;;;6248702;23;20064;-89
2023/11/16 18:04:10;;;;;;;4.38;2.15;;;6.90;99.90;;;;;;6173297;23;20012;-91
2023/11/16 18:06:37;;;;;;;6.30;2.45;;;6.90;99.90;;;;;;6198145;23;20023;-90
2023/11/16 18:09:37;;;;;;;3.40;1.55;;;6.90;99.90;;;;;;6221634;23;20016;-90
2023/11/16 18:12:14;;;;;;;4.15;1.77;;;7.00;99.90;;;;;;6170374;23;20016;-89
2023/11/16 18:14:57;;;;;;;;;;;;;;;;;;;;;
2023/11/16 18:17:26;;;;;;;6.13;2.58;;;6.90;99.90;;;;;;6224512;23;20096;-88
2023/11/16 18:19:53;;;;;;;4.53;2.15;;;6.90;99.90;;;;;;6196922;23;20042;-89
2023/11/16 18:22:21;;;;;;;4.20;2.15;;;6.90;99.90;;;;;;6196745;23;20413;-90
2023/11/16 18:24:54;;;;;;;5.10;2.50;;;6.90;99.90;;;;;;6221841;23;20024;-91
2023/11/16 18:27:22;;;;;;;5.38;2.00;;;6.90;99.90;;;;;;6196827;23;20077;-88
2023/11/16 18:29:53;;;;;;;5.00;2.60;;;6.90;99.90;;;;;;6221484;23;20023;-92
2023/11/16 18:32:25;;;;;;;4.32;1.73;;;6.90;99.90;;;;;;6197834;23;20023;-91
2023/11/16 18:34:53;;;;;;;4.03;2.33;;;6.90;99.90;;;;;;6195996;23;20024;-90
2023/11/16 18:37:20;;;;;;;5.60;1.70;;;6.90;99.90;;;;;;6196437;23;20020;-91
2023/11/16 18:39:48;;;;;;;3.28;1.38;;;6.90;99.90;;;;;;6196051;23;20020;-89
2023/11/16 18:42:18;;;;;;;5.10;2.58;;;6.90;99.90;;;;;;6221270;23;20023;-91
2023/11/16 18:44:51;;;;;;;4.82;2.05;;;6.90;99.90;;;;;;6174559;23;20020;-90
2023/11/16 18:47:19;;;;;;;5.10;2.33;;;6.90;99.90;;;;;;6171890;23;20051;-90
2023/11/16 18:49:46;;;;;;;4.72;2.45;;;6.90;99.90;;;;;;6221435;23;20020;-89
2023/11/16 18:52:16;;;;;;;3.97;2.15;;;6.90;99.90;;;;;;6196759;23;20024;-89
2023/11/16 18:54:44;;;;;;;6.95;2.72;;;6.90;99.90;;;;;;6197098;23;20044;-88
2023/11/16 18:57:11;;;;;;;6.75;2.70;;;6.90;99.90;;;;;;6172278;23;20017;-92
2023/11/16 18:59:39;;;;;;;5.35;2.25;;;6.90;99.90;;;;;;6221060;23;20107;-91
2023/11/16 19:02:15;;;;;;;5.10;3.05;;;6.90;99.90;;;;;;6196642;23;20102;-88
2023/11/16 19:09:40;;;;;;;4.35;1.98;;;6.90;99.90;;;;;;6012193;23;20075;-95
2023/11/16 19:12:08;;;;;;;5.50;2.70;;;6.80;99.90;;;;;;6012933;23;20026;-85
2023/11/16 19:14:35;;;;;;;7.38;3.50;;;6.80;99.90;;;;;;6043721;23;20026;-84
2023/11/16 19:17:03;;;;;;;5.65;3.00;;;6.80;99.90;;;;;;6056323;23;20018;-81
2023/11/16 19:19:30;;;;;;;5.15;3.35;;;6.80;99.90;;;;;;6115855;23;20044;-81
2023/11/16 19:22:06;;;;;;;6.18;2.60;;;6.80;99.90;;;;;;6219519;23;20027;-81
2023/11/16 19:24:34;;;;;;;5.47;2.42;;;6.80;99.90;;;;;;6170296;23;20044;-82
2023/11/16 19:27:02;;;;;;;5.57;2.88;;;6.80;99.90;;;;;;6194699;23;20050;-82
2023/11/16 19:29:29;;;;;;;5.97;2.60;;;6.70;99.90;;;;;;6195166;23;20016;-85
2023/11/16 19:31:56;;;;;;;7.55;3.78;;;6.80;99.90;;;;;;6220816;23;20082;-88
2023/11/16 19:34:24;;;;;;;6.35;3.35;;;6.70;99.90;;;;;;6198967;23;20024;-93
2023/11/16 19:36:53;;;;;;;4.85;2.55;;;6.70;99.90;;;;;;6197705;23;20076;-88
2023/11/16 19:39:20;;;;;;;5.65;3.35;;;6.70;99.90;;;;;;6196443;23;20020;-88
2023/11/16 19:41:58;;;;;;;6.13;3.10;;;6.70;99.90;;;;;;6198698;23;20024;-88
2023/11/16 19:44:25;;;;;;;4.80;2.75;;;6.70;99.90;;;;;;6196751;23;20048;-88
2023/11/16 19:46:53;;;;;;;4.47;2.45;;;6.70;99.90;;;;;;6171088;23;20016;-86
2023/11/16 19:49:20;;;;;;;5.82;2.20;;;6.70;99.90;;;;;;6196253;23;20016;-86
2023/11/16 19:51:47;;;;;;;5.68;2.58;;;6.70;99.90;;;;;;6195775;23;20016;-87
2023/11/16 19:54:17;;;;;;;4.97;2.90;;;6.70;99.90;;;;;;6195895;23;20099;-87
2023/11/16 19:56:45;;;;;;;4.55;2.47;;;6.60;99.90;;;;;;6221004;23;20465;-88
2023/11/16 19:59:12;;;;;;;3.35;1.85;;;6.60;99.90;;;;;;6196187;23;20133;-87
2023/11/16 20:01:39;;;;;;;5.57;2.50;;;6.60;99.90;;;;;;6171783;23;20091;-88
2023/11/16 20:04:29;;;;;;;4.75;2.10;;;6.60;99.90;;;;;;6195917;23;20020;-91
2023/11/16 20:07:03;;;;;;;5.18;3.05;;;6.50;99.90;;;;;;6196430;23;20051;-86
2023/11/16 20:09:31;;;;;;;6.35;2.83;;;6.50;99.90;;;;;;6221066;23;20016;-88
2023/11/16 20:11:58;;;;;;;4.93;2.70;;;6.50;99.90;;;;;;6171706;23;20044;-87
2023/11/16 20:14:29;;;;;;;4.05;2.50;;;6.50;99.90;;;;;;6196408;23;20024;-90
2023/11/16 20:16:57;;;;;;;4.63;2.42;;;6.50;99.90;;;;;;6220904;23;20035;-85
2023/11/16 20:19:24;;;;;;;4.22;2.33;;;6.50;99.90;;;;;;6171475;23;20031;-87
2023/11/16 20:21:54;;;;;;;5.88;3.33;;;6.50;99.90;;;;;;6195719;23;20020;-87
2023/11/16 20:24:21;;;;;;;4.60;2.60;;;6.50;99.90;;;;;;6172294;23;20024;-87
2023/11/16 20:26:48;;;;;;;4.72;2.38;;;6.50;99.90;;;;;;6220265;23;20016;-84
2023/11/16 20:29:17;;;;;;;5.07;3.10;;;6.50;99.90;;;;;;6195369;23;20027;-88
2023/11/16 20:31:44;;;;;;;5.80;2.35;;;6.50;99.90;;;;;;6195349;23;20019;-84
2023/11/16 20:34:17;;;;;;;6.10;3.05;;;6.50;99.90;;;;;;6220204;23;20082;-88
2023/11/16 20:36:46;;;;;;;4.05;2.38;;;6.50;99.90;;;;;;6221812;23;20012;-87
2023/11/16 20:39:16;;;;;;;5.30;2.33;;;6.50;99.90;;;;;;6222257;23;20379;-87
2023/11/16 20:41:45;;;;;;;5.55;2.38;;;6.40;99.90;;;;;;6223387;23;20402;-86
2023/11/16 20:44:13;;;;;;;5.55;2.08;;;6.50;99.90;;;;;;6222843;23;20020;-87
2023/11/16 20:46:43;;;;;;;4.38;2.70;;;6.40;99.90;;;;;;6174002;23;20024;-85
2023/11/16 20:49:10;;;;;;;5.15;2.05;;;6.40;99.90;;;;;;6172566;23;20485;-87
2023/11/16 20:51:38;;;;;;;3.80;1.85;;;6.50;99.90;;;;;;6197877;23;20020;-90
2023/11/16 20:54:12;;;;;;;4.28;1.55;;;6.50;99.90;;;;;;6198629;23;20032;-92
2023/11/16 20:56:41;;;;;;;4.22;1.88;;;6.40;99.90;;;;;;6222407;23;20013;-86
2023/11/16 20:59:09;;;;;;;2.80;1.65;;;6.40;99.90;;;;;;6197198;23;20016;-87
2023/11/16 21:01:36;;;;;;;3.90;1.65;;;6.40;99.90;;;;;;6173105;23;20043;-84
2023/11/16 21:04:04;;;;;;;2.42;1.27;;;6.40;99.90;;;;;;6197374;23;20016;-87
2023/11/16 21:06:32;;;;;;;2.42;1.10;;;6.40;99.90;;;;;;6222749;23;20024;-88
2023/11/16 21:09:02;;;;;;;3.35;1.40;;;6.40;99.90;;;;;;6185040;23;20020;-87
2023/11/16 21:11:29;;;;;;;3.03;1.15;;;6.40;99.90;;;;;;6209813;23;20027;-87
2023/11/16 21:13:56;;;;;;;2.60;1.30;;;6.40;99.90;;;;;;6189515;23;20012;-89
2023/11/16 21:16:26;;;;;;;4.20;1.55;;;6.40;99.90;;;;;;6199370;23;20077;-92
2023/11/16 21:18:57;;;;;;;3.10;1.65;;;6.40;99.90;;;;;;6175660;23;20031;-88